createdAt,value
2018-04-28T00:01:59.643Z,60.65
2018-04-28T00:04:25.981Z,60.56
2018-04-28T00:06:52.998Z,60.44
2018-04-28T00:09:19.284Z,60.63
2018-04-28T00:11:45.617Z,61.00
2018-04-28T00:14:11.874Z,61.19
2018-04-28T00:16:54.406Z,61.74
2018-04-28T00:19:24.783Z,62.21
2018-04-28T00:21:51.071Z,62.47
2018-04-28T00:24:19.361Z,62.45
2018-04-28T00:26:48.093Z,62.35
2018-04-28T00:29:14.378Z,62.20
2018-04-28T00:31:57.395Z,62.40
2018-04-28T00:34:25.606Z,62.36
2018-04-28T00:37:00.024Z,62.41
2018-04-28T00:39:26.355Z,62.45
2018-04-28T00:41:52.648Z,62.47
2018-04-28T00:44:18.953Z,62.61
2018-04-28T00:52:42.990Z,62.42
2018-04-28T00:55:21.007Z,62.28
2018-04-28T00:58:06.113Z,62.33
2018-04-28T01:03:55.772Z,62.57
2018-04-28T01:06:22.060Z,62.43
2018-04-28T01:08:48.368Z,62.11
2018-04-28T01:11:17.539Z,61.99
2018-04-28T01:13:44.863Z,61.94
2018-04-28T01:16:11.965Z,61.80
2018-04-28T01:18:50.959Z,61.88
2018-04-28T01:21:17.976Z,61.90
2018-04-28T01:23:47.928Z,62.10
2018-04-28T01:26:27.096Z,61.86
2018-04-28T01:28:56.225Z,61.92
2018-04-28T01:31:22.528Z,61.91
2018-04-28T01:34:03.924Z,61.99
2018-04-28T01:36:30.303Z,62.04
2018-04-28T01:39:13.014Z,61.77
2018-04-28T01:45:21.697Z,61.83
2018-04-28T01:51:03.022Z,62.34
2018-04-28T01:53:30.167Z,62.38
2018-04-28T01:55:57.320Z,62.05
2018-04-28T01:58:26.517Z,61.86
2018-04-28T02:04:04.545Z,62.42
2018-04-28T02:06:43.662Z,62.26
2018-04-28T02:09:10.760Z,62.35
2018-04-28T02:11:41.977Z,62.28
2018-04-28T02:14:28.199Z,62.58
2018-04-28T02:17:02.672Z,62.77
2018-04-28T02:23:01.670Z,62.83
2018-04-28T02:25:45.538Z,62.77
2018-04-28T02:28:17.679Z,62.96
2018-04-28T02:33:48.990Z,63.15
2018-04-28T02:36:17.088Z,63.16
2018-04-28T02:38:43.400Z,63.29
2018-04-28T02:41:17.574Z,63.75
2018-04-28T02:43:55.703Z,63.66
2018-04-28T02:46:24.870Z,63.69
2018-04-28T02:48:58.397Z,63.92
2018-04-28T02:51:49.493Z,64.15
2018-04-28T02:54:48.477Z,64.42
2018-04-28T02:57:16.467Z,64.85
2018-04-28T02:59:46.443Z,64.78
2018-04-28T03:02:22.837Z,64.81
2018-04-28T03:04:58.025Z,65.08
2018-04-28T03:07:41.569Z,65.03
2018-04-28T03:10:13.812Z,64.63
2018-04-28T03:12:40.101Z,65.04
2018-04-28T03:15:06.506Z,65.05
2018-04-28T03:17:38.458Z,65.12
2018-04-28T03:20:17.768Z,66.35
2018-04-28T03:22:46.969Z,66.57
2018-04-28T03:25:13.304Z,66.66
2018-04-28T03:27:55.634Z,66.40
2018-04-28T03:33:33.518Z,66.82
2018-04-28T03:36:13.737Z,66.90
2018-04-28T03:38:40.024Z,67.14
2018-04-28T03:41:24.174Z,66.70
2018-04-28T03:44:11.303Z,67.21
2018-04-28T03:46:43.534Z,67.07
2018-04-28T03:49:25.551Z,66.71
2018-04-28T03:51:55.538Z,66.47
2018-04-28T03:54:25.595Z,66.35
2018-04-28T03:56:52.683Z,66.08
2018-04-28T04:02:52.684Z,65.70
2018-04-28T04:05:19.826Z,65.82
2018-04-28T04:07:49.965Z,65.53
2018-04-28T04:10:28.003Z,65.13
2018-04-28T04:13:06.139Z,65.49
2018-04-28T04:15:42.471Z,64.73
2018-04-28T04:18:15.845Z,63.99
2018-04-28T04:24:17.465Z,64.16
2018-04-28T04:26:54.957Z,64.29
2018-04-28T04:29:33.804Z,64.28
2018-04-28T04:32:09.979Z,63.89
2018-04-28T04:34:52.118Z,63.72
2018-04-28T04:37:25.288Z,63.77
2018-04-28T04:39:55.409Z,63.73
2018-04-28T04:42:23.506Z,63.48
2018-04-28T04:44:53.652Z,63.15
2018-04-28T04:47:33.176Z,62.58
2018-04-28T04:53:17.725Z,60.92
2018-04-28T04:58:48.220Z,59.48
2018-04-28T05:01:31.801Z,58.31
2018-04-28T05:07:10.812Z,56.84
2018-04-28T05:09:40.658Z,55.96
2018-04-28T05:15:44.861Z,53.58
2018-04-28T05:18:29.525Z,51.68
2018-04-28T05:21:06.892Z,50.01
2018-04-28T05:23:38.150Z,49.45
2018-04-28T05:30:13.166Z,46.59
2018-04-28T05:32:52.808Z,45.66
2018-04-28T05:38:51.813Z,44.79
2018-04-28T05:41:31.243Z,44.24
2018-04-28T05:47:32.463Z,43.98
2018-04-28T05:53:19.950Z,43.24
2018-04-28T05:59:05.102Z,42.34
2018-04-28T06:04:59.550Z,41.63
2018-04-28T06:07:34.111Z,41.13
2018-04-28T06:10:07.112Z,41.32
2018-04-28T06:12:56.111Z,40.83
2018-04-28T06:15:34.547Z,40.91
2018-04-28T06:18:25.761Z,41.07
2018-04-28T06:20:52.849Z,41.44
2018-04-28T06:23:19.210Z,41.68
2018-04-28T06:25:45.536Z,41.19
2018-04-28T06:28:11.905Z,41.73
2018-04-28T06:30:38.927Z,41.85
2018-04-28T06:33:05.307Z,42.17
2018-04-28T06:35:31.710Z,42.29
2018-04-28T06:37:57.966Z,41.97
2018-04-28T06:40:24.324Z,41.75
2018-04-28T06:42:50.727Z,41.24
2018-04-28T06:45:17.084Z,41.57
2018-04-28T06:47:43.411Z,41.27
2018-04-28T06:50:09.713Z,41.36
2018-04-28T06:52:36.756Z,41.66
2018-04-28T06:55:03.848Z,41.13
2018-04-28T06:57:30.136Z,41.20
2018-04-28T06:59:56.522Z,40.49
2018-04-28T07:02:22.833Z,40.29
2018-04-28T07:04:49.150Z,40.49
2018-04-28T07:07:15.449Z,39.77
2018-04-28T07:09:41.771Z,39.58
2018-04-28T07:12:08.114Z,39.28
2018-04-28T07:14:35.200Z,38.51
2018-04-28T07:17:01.560Z,38.73
2018-04-28T07:19:27.887Z,38.58
2018-04-28T07:21:54.233Z,37.69
2018-04-28T07:24:20.537Z,37.84
2018-04-28T07:26:46.875Z,38.20
2018-04-28T07:29:13.264Z,38.25
2018-04-28T07:31:39.545Z,38.03
2018-04-28T07:34:05.873Z,37.57
2018-04-28T07:36:32.216Z,37.75
2018-04-28T07:38:58.532Z,37.51
2018-04-28T07:41:24.939Z,37.85
2018-04-28T07:43:51.275Z,37.28
2018-04-28T07:46:17.601Z,37.29
2018-04-28T07:48:43.953Z,36.91
2018-04-28T07:51:10.348Z,37.15
2018-04-28T07:53:36.660Z,36.87
2018-04-28T07:56:03.778Z,36.92
2018-04-28T07:58:31.144Z,36.77
2018-04-28T08:00:57.477Z,35.88
2018-04-28T08:03:23.809Z,36.16
2018-04-28T08:05:50.109Z,36.17
2018-04-28T08:08:16.425Z,36.25
2018-04-28T08:10:42.750Z,36.30
2018-04-28T08:13:09.140Z,35.90
2018-04-28T08:15:36.902Z,36.44
2018-04-28T08:18:03.164Z,36.11
2018-04-28T08:20:30.215Z,35.04
2018-04-28T08:22:56.515Z,35.13
2018-04-28T08:25:22.830Z,35.78
2018-04-28T08:27:49.117Z,36.54
2018-04-28T08:30:15.494Z,36.39
2018-04-28T08:32:41.798Z,35.94
2018-04-28T08:35:08.098Z,35.67
2018-04-28T08:37:35.139Z,35.65
2018-04-28T08:40:02.236Z,35.65
2018-04-28T08:42:28.585Z,34.71
2018-04-28T08:44:54.947Z,33.38
2018-04-28T08:47:22.088Z,34.23
2018-04-28T08:49:49.141Z,34.12
2018-04-28T08:52:16.252Z,33.80
2018-04-28T08:54:42.558Z,33.22
2018-04-28T08:57:08.907Z,33.43
2018-04-28T08:59:54.078Z,33.58
2018-04-28T09:02:20.410Z,32.98
2018-04-28T09:04:46.744Z,32.44
2018-04-28T09:07:39.396Z,32.09
2018-04-28T09:10:05.735Z,32.70
2018-04-28T09:12:32.044Z,32.76
2018-04-28T09:14:58.390Z,32.05
2018-04-28T09:17:24.684Z,32.24
2018-04-28T09:19:50.976Z,32.47
2018-04-28T09:22:17.253Z,31.31
2018-04-28T09:24:43.601Z,32.17
2018-04-28T09:27:09.899Z,31.90
2018-04-28T09:29:36.952Z,31.70
2018-04-28T09:32:03.219Z,31.66
2018-04-28T09:34:29.538Z,30.71
2018-04-28T09:36:55.841Z,31.17
2018-04-28T09:39:22.896Z,29.93
2018-04-28T09:41:49.217Z,30.19
2018-04-28T09:44:16.234Z,30.48
2018-04-28T09:46:42.601Z,30.43
2018-04-28T09:49:09.643Z,31.29
2018-04-28T09:51:36.728Z,28.15
2018-04-28T09:54:03.051Z,28.15
2018-04-28T09:56:29.370Z,28.82
2018-04-28T09:58:55.753Z,28.32
2018-04-28T10:01:22.014Z,29.06
2018-04-28T10:03:53.897Z,29.46
2018-04-28T10:06:20.218Z,29.07
2018-04-28T10:08:46.498Z,28.17
2018-04-28T10:11:12.797Z,28.13
2018-04-28T10:13:39.157Z,26.22
2018-04-28T10:16:05.425Z,25.41
2018-04-28T10:18:32.498Z,26.24
2018-04-28T10:20:58.786Z,26.32
2018-04-28T10:23:25.128Z,26.07
2018-04-28T10:25:51.465Z,26.13
2018-04-28T10:28:18.545Z,25.69
2018-04-28T10:30:44.885Z,26.35
2018-04-28T10:33:11.197Z,26.81
2018-04-28T10:35:37.536Z,26.48
2018-04-28T10:38:03.868Z,26.07
2018-04-28T10:40:30.194Z,26.11
2018-04-28T10:42:56.529Z,26.54
2018-04-28T10:45:22.864Z,26.75
2018-04-28T10:47:49.227Z,26.31
2018-04-28T10:50:15.541Z,26.03
2018-04-28T10:52:41.816Z,25.87
2018-04-28T10:55:08.150Z,25.78
2018-04-28T10:57:34.426Z,26.27
2018-04-28T11:00:00.795Z,25.92
2018-04-28T11:02:27.874Z,26.56
2018-04-28T11:04:54.936Z,27.28
2018-04-28T11:07:21.233Z,26.51
2018-04-28T11:09:47.505Z,26.36
2018-04-28T11:12:13.835Z,25.25
2018-04-28T11:14:40.129Z,23.75
2018-04-28T11:17:06.606Z,23.59
2018-04-28T11:19:32.891Z,24.00
2018-04-28T11:21:59.158Z,24.72
2018-04-28T11:24:25.516Z,24.86
2018-04-28T11:26:51.810Z,25.25
2018-04-28T11:29:18.125Z,25.11
2018-04-28T11:31:45.161Z,24.62
2018-04-28T11:34:12.209Z,24.65
2018-04-28T11:36:38.483Z,24.21
2018-04-28T11:39:04.810Z,23.75
2018-04-28T11:41:31.069Z,23.03
2018-04-28T11:43:57.368Z,20.96
2018-04-28T11:46:23.702Z,20.16
2018-04-28T11:48:49.957Z,18.72
2018-04-28T11:51:16.235Z,16.96
2018-04-28T11:53:43.291Z,16.35
2018-04-28T11:56:10.354Z,16.27
2018-04-28T11:58:36.675Z,16.19
2018-04-28T12:01:03.031Z,16.56
2018-04-28T12:03:29.405Z,15.66
2018-04-28T12:05:55.741Z,15.96
2018-04-28T12:08:22.135Z,16.53
2018-04-28T12:10:48.429Z,16.93
2018-04-28T12:13:15.470Z,18.10
2018-04-28T12:15:42.522Z,18.35
2018-04-28T12:18:09.568Z,18.96
2018-04-28T12:20:36.617Z,19.65
2018-04-28T12:23:03.702Z,17.78
2018-04-28T12:25:30.197Z,17.73
2018-04-28T12:27:57.211Z,14.93
2018-04-28T12:30:23.575Z,13.54
2018-04-28T12:32:50.594Z,15.35
2018-04-28T12:35:16.900Z,17.88
2018-04-28T12:37:43.185Z,17.65
2018-04-28T12:40:10.249Z,17.98
2018-04-28T12:42:36.608Z,18.33
2018-04-28T12:45:02.999Z,19.76
2018-04-28T12:47:30.027Z,19.38
2018-04-28T12:49:56.373Z,19.31
2018-04-28T12:52:23.414Z,18.50
2018-04-28T12:54:49.744Z,17.86
2018-04-28T12:57:16.048Z,17.10
2018-04-28T12:59:42.343Z,15.45
2018-04-28T13:02:08.634Z,15.52
2018-04-28T13:04:34.947Z,14.28
2018-04-28T13:07:01.245Z,13.95
2018-04-28T13:09:27.738Z,14.26
2018-04-28T13:11:54.776Z,14.63
2018-04-28T13:14:21.444Z,13.99
2018-04-28T13:16:47.746Z,13.10
2018-04-28T13:19:14.796Z,12.88
2018-04-28T13:21:41.833Z,15.38
2018-04-28T13:24:08.151Z,17.62
2018-04-28T13:26:34.444Z,17.82
2018-04-28T13:29:00.719Z,17.13
2018-04-28T13:31:27.033Z,15.96
2018-04-28T13:33:53.339Z,15.46
2018-04-28T13:36:19.625Z,14.43
2018-04-28T13:38:45.999Z,13.90
2018-04-28T13:41:12.327Z,12.46
2018-04-28T13:43:39.372Z,11.86
2018-04-28T13:46:05.729Z,12.09
2018-04-28T13:48:32.064Z,11.66
2018-04-28T13:50:58.566Z,10.78
2018-04-28T13:53:24.937Z,12.06
2018-04-28T13:55:51.207Z,12.52
2018-04-28T13:58:18.246Z,12.08
2018-04-28T14:00:44.542Z,10.67
2018-04-28T14:03:10.857Z,9.67
2018-04-28T14:05:37.154Z,10.25
2018-04-28T14:08:03.451Z,10.43
2018-04-28T14:10:29.766Z,11.42
2018-04-28T14:12:56.141Z,11.13
2018-04-28T14:15:22.510Z,9.72
2018-04-28T14:17:48.824Z,11.48
2018-04-28T14:20:15.254Z,14.17
2018-04-28T14:22:41.571Z,14.97
2018-04-28T14:25:08.672Z,12.44
2018-04-28T14:27:35.006Z,10.99
2018-04-28T14:30:01.374Z,9.65
2018-04-28T14:32:28.134Z,9.45
2018-04-28T14:34:54.509Z,10.64
2018-04-28T14:37:20.858Z,10.19
2018-04-28T14:39:47.204Z,9.88
2018-04-28T14:42:13.551Z,10.60
2018-04-28T14:44:39.832Z,11.02
2018-04-28T14:47:06.934Z,10.62
2018-04-28T14:49:33.952Z,11.97
2018-04-28T14:52:00.255Z,12.49
2018-04-28T14:54:26.530Z,13.65
2018-04-28T14:56:53.546Z,12.99
2018-04-28T14:59:19.803Z,13.67
2018-04-28T15:01:46.065Z,14.81
2018-04-28T15:04:12.348Z,14.57
2018-04-28T15:06:39.540Z,14.36
2018-04-28T15:09:05.902Z,15.06
2018-04-28T15:11:32.282Z,14.48
2018-04-28T15:13:58.611Z,14.97
2018-04-28T15:16:25.762Z,14.03
2018-04-28T15:18:52.119Z,12.59
2018-04-28T15:21:18.474Z,12.05
2018-04-28T15:23:44.839Z,12.11
2018-04-28T15:26:11.152Z,13.36
2018-04-28T15:28:37.492Z,13.41
2018-04-28T15:31:04.614Z,13.21
2018-04-28T15:33:30.943Z,13.45
2018-04-28T15:35:57.190Z,14.45
2018-04-28T15:38:23.517Z,14.34
2018-04-28T15:40:49.818Z,15.09
2018-04-28T15:43:16.130Z,14.11
2018-04-28T15:45:42.474Z,13.07
2018-04-28T15:48:08.777Z,11.83
2018-04-28T15:50:35.160Z,10.35
2018-04-28T15:53:01.505Z,10.65
2018-04-28T15:55:27.798Z,11.08
2018-04-28T15:57:54.100Z,11.94
2018-04-28T16:00:21.332Z,10.88
2018-04-28T16:02:47.648Z,11.79
2018-04-28T16:05:14.007Z,12.56
2018-04-28T16:07:40.297Z,12.23
2018-04-28T16:10:06.595Z,13.49
2018-04-28T16:12:33.595Z,13.00
2018-04-28T16:14:59.910Z,14.03
2018-04-28T16:17:26.251Z,17.09
2018-04-28T16:19:52.562Z,18.54
2018-04-28T16:22:18.836Z,21.09
2018-04-28T16:24:45.565Z,21.22
2018-04-28T16:27:11.901Z,21.88
2018-04-28T16:29:38.371Z,22.19
2018-04-28T16:32:05.427Z,21.58
2018-04-28T16:34:31.751Z,20.87
2018-04-28T16:36:58.954Z,20.46
2018-04-28T16:39:25.311Z,20.09
2018-04-28T16:41:51.602Z,21.24
2018-04-28T16:44:17.838Z,21.82
2018-04-28T16:46:44.151Z,21.48
2018-04-28T16:49:10.763Z,21.63
2018-04-28T16:51:37.837Z,21.31
2018-04-28T16:54:04.108Z,21.01
2018-04-28T16:56:30.418Z,19.96
2018-04-28T16:58:56.763Z,19.59
2018-04-28T17:01:24.056Z,21.22
2018-04-28T17:03:51.098Z,22.77
2018-04-28T17:06:18.995Z,23.24
2018-04-28T17:08:45.289Z,23.22
2018-04-28T17:11:11.595Z,24.02
2018-04-28T17:13:38.203Z,25.38
2018-04-28T17:16:04.629Z,26.44
2018-04-28T17:18:31.101Z,27.19
2018-04-28T17:20:57.406Z,26.88
2018-04-28T17:23:23.788Z,28.06
2018-04-28T17:25:50.063Z,28.96
2018-04-28T17:28:16.412Z,29.48
2018-04-28T17:30:42.709Z,29.61
2018-04-28T17:33:09.041Z,29.17
2018-04-28T17:35:35.338Z,29.86
2018-04-28T17:38:01.622Z,29.78
2018-04-28T17:40:27.940Z,30.76
2018-04-28T17:42:54.894Z,31.25
2018-04-28T17:45:21.207Z,31.28
2018-04-28T17:47:47.531Z,31.56
2018-04-28T17:50:14.551Z,32.54
2018-04-28T17:52:40.839Z,32.59
2018-04-28T17:55:07.148Z,33.27
2018-04-28T17:57:33.438Z,34.26
2018-04-28T17:59:59.910Z,35.52
2018-04-28T18:02:26.247Z,36.28
2018-04-28T18:04:52.911Z,36.04
2018-04-28T18:07:19.359Z,36.58
2018-04-28T18:09:46.457Z,37.34
2018-04-28T18:12:13.467Z,37.95
2018-04-28T18:14:39.920Z,38.21
2018-04-28T18:17:06.272Z,38.56
2018-04-28T18:19:33.378Z,38.06
2018-04-28T18:21:59.711Z,39.02
2018-04-28T18:24:26.039Z,37.53
2018-04-28T18:26:52.339Z,39.31
2018-04-28T18:29:18.643Z,39.71
2018-04-28T18:31:45.656Z,39.57
2018-04-28T18:34:11.966Z,40.42
2018-04-28T18:36:38.346Z,40.65
2018-04-28T18:39:05.664Z,41.20
2018-04-28T18:41:31.956Z,41.76
2018-04-28T18:43:58.275Z,41.12
2018-04-28T18:46:24.692Z,41.05
2018-04-28T18:48:50.963Z,41.34
2018-04-28T18:51:17.308Z,41.93
2018-04-28T18:53:44.354Z,42.00
2018-04-28T18:56:10.734Z,39.79
2018-04-28T18:58:37.775Z,40.45
2018-04-28T19:01:04.099Z,41.18
2018-04-28T19:03:30.554Z,41.95
2018-04-28T19:05:57.632Z,43.52
2018-04-28T19:08:23.965Z,43.74
2018-04-28T19:10:50.291Z,43.51
2018-04-28T19:13:16.642Z,43.47
2018-04-28T19:15:43.122Z,43.47
2018-04-28T19:18:09.490Z,44.96
2018-04-28T19:20:35.876Z,45.07
2018-04-28T19:23:02.333Z,45.20
2018-04-28T19:25:29.389Z,45.16
2018-04-28T19:27:55.704Z,46.14
2018-04-28T19:30:22.909Z,46.53
2018-04-28T19:32:49.252Z,46.94
2018-04-28T19:35:15.560Z,47.69
2018-04-28T19:37:41.873Z,47.66
2018-04-28T19:40:08.312Z,48.44
2018-04-28T19:42:34.626Z,48.45
2018-04-28T19:45:02.794Z,48.27
2018-04-28T19:47:29.141Z,48.38
2018-04-28T19:49:55.510Z,48.51
2018-04-28T19:52:21.890Z,47.86
2018-04-28T19:54:48.977Z,47.84
2018-04-28T19:57:15.299Z,46.99
2018-04-28T19:59:41.656Z,46.54
2018-04-28T20:02:07.967Z,46.10
2018-04-28T20:04:34.281Z,46.13
2018-04-28T20:07:00.633Z,46.74
2018-04-28T20:09:27.058Z,46.98
2018-04-28T20:11:53.364Z,47.51
2018-04-28T20:14:19.720Z,47.41
2018-04-28T20:16:46.097Z,48.50
2018-04-28T20:19:12.517Z,48.73
2018-04-28T20:21:38.871Z,48.73
2018-04-28T20:24:23.843Z,49.76
2018-04-28T20:26:50.986Z,50.82
2018-04-28T20:29:17.275Z,51.47
2018-04-28T20:31:43.571Z,50.46
2018-04-28T20:34:10.632Z,51.92
2018-04-28T20:36:36.994Z,52.13
2018-04-28T20:39:03.314Z,52.50
2018-04-28T20:41:29.650Z,53.24
2018-04-28T20:43:55.934Z,54.45
2018-04-28T20:46:22.982Z,54.48
2018-04-28T20:48:50.055Z,55.33
2018-04-28T20:51:16.416Z,55.25
2018-04-28T20:53:42.696Z,54.68
2018-04-28T20:56:09.833Z,55.07
2018-04-28T20:58:36.116Z,55.48
2018-04-28T21:01:02.865Z,55.65
2018-04-28T21:03:29.881Z,56.14
2018-04-28T21:05:56.172Z,56.57
2018-04-28T21:08:22.607Z,56.08
2018-04-28T21:10:48.891Z,55.89
2018-04-28T21:13:15.163Z,55.64
2018-04-28T21:15:41.557Z,55.65
2018-04-28T21:18:07.859Z,55.23
2018-04-28T21:20:34.879Z,55.06
2018-04-28T21:23:01.262Z,55.86
2018-04-28T21:25:27.797Z,56.40
2018-04-28T21:27:54.099Z,56.81
2018-04-28T21:30:21.120Z,57.07
2018-04-28T21:32:47.368Z,57.88
2018-04-28T21:35:14.430Z,58.18
2018-04-28T21:37:41.584Z,57.41
2018-04-28T21:40:07.870Z,58.00
2018-04-28T21:42:34.177Z,58.54
2018-04-28T21:45:00.495Z,58.46
2018-04-28T21:47:27.557Z,58.69
2018-04-28T21:49:53.887Z,58.59
2018-04-28T21:52:20.216Z,58.91
2018-04-28T21:54:46.505Z,59.55
2018-04-28T21:57:13.522Z,59.37
2018-04-28T21:59:39.868Z,59.25
2018-04-28T22:02:06.189Z,58.88
2018-04-28T22:04:32.507Z,59.13
2018-04-28T22:06:59.524Z,59.30
2018-04-28T22:09:25.838Z,59.58
2018-04-28T22:11:52.181Z,59.84
2018-04-28T22:14:18.458Z,59.95
2018-04-28T22:16:44.791Z,59.74
2018-04-28T22:19:12.052Z,59.61
2018-04-28T22:21:38.397Z,59.44
2018-04-28T22:24:05.437Z,59.45
2018-04-28T22:26:31.744Z,60.49
2018-04-28T22:28:58.027Z,60.89
2018-04-28T22:31:24.338Z,61.27
2018-04-28T22:33:51.368Z,61.37
2018-04-28T22:36:17.674Z,61.62
2018-04-28T22:38:43.958Z,61.52
2018-04-28T22:41:10.246Z,61.51
2018-04-28T22:43:36.515Z,61.77
2018-04-28T22:46:03.613Z,62.12
2018-04-28T22:48:29.895Z,61.87
2018-04-28T22:50:56.902Z,61.83
2018-04-28T22:53:23.189Z,61.70
2018-04-28T22:55:49.505Z,61.85
2018-04-28T22:58:16.517Z,61.95
2018-04-28T23:00:42.839Z,62.19
2018-04-28T23:03:09.169Z,62.32
2018-04-28T23:05:35.473Z,62.48
2018-04-28T23:08:01.773Z,62.41
2018-04-28T23:10:28.830Z,62.84
2018-04-28T23:12:55.114Z,63.06
2018-04-28T23:15:22.131Z,63.44
2018-04-28T23:17:48.444Z,63.79
2018-04-28T23:20:14.731Z,63.89
2018-04-28T23:22:41.060Z,64.12
2018-04-28T23:25:07.327Z,64.32
2018-04-28T23:27:33.667Z,64.67
2018-04-28T23:29:59.958Z,65.13
2018-04-28T23:32:26.306Z,65.67
2018-04-28T23:34:53.354Z,65.42
2018-04-28T23:37:20.382Z,65.47
2018-04-28T23:39:46.639Z,65.34
2018-04-28T23:42:12.919Z,65.48
2018-04-28T23:44:39.203Z,65.55
2018-04-28T23:47:05.485Z,65.56
2018-04-28T23:49:31.816Z,65.02
2018-04-28T23:51:58.129Z,64.86
2018-04-28T23:54:24.450Z,65.23
2018-04-28T23:56:50.789Z,65.80
2018-04-28T23:59:17.128Z,65.81
